Angier, NC (27501)

4:11 PM EDT on July 26, 2016 (GMT -0400)
Benton Place | | Change Station
Active Advisory: Heat Advisory

Elev 312 ft 35.51 °N, 78.71 °W | Updated 2 minutes ago

Scattered Clouds
Scattered Clouds
97.2 °F
Feels Like 113 °F
N
3.2
Wind Variable Wind from SSW

Today
High -- | Low -- °F
--% Chance of Precip.
Yesterday
High -- | Low -- °F
Precip. -- in
Pressure 29.94 in
Visibility 10.0 miles
Clouds Scattered Clouds 5000 ft
Heat Index 113 °F
Dew Point 77 °F
Humidity 53%
Rainfall 0.00 in
Snow Depth Not available.
6:19 AM 8:23 PM
Waning Gibbous, 51% visible
METAR KHRJ 262000Z AUTO 23004G14KT 10SM SCT050 36/25 A2994 RMK AO2 T03620249
Pressure 29.94 in
Visibility 10.0 miles
Clouds Scattered Clouds 5000 ft
Heat Index 113 °F
Dew Point 77 °F
Humidity 53%
Rainfall 0.00 in
Snow Depth Not available.
6:19 AM 8:23 PM
Waning Gibbous, 51% visible
METAR KHRJ 262000Z AUTO 23004G14KT 10SM SCT050 36/25 A2994 RMK AO2 T03620249

10-Day Weather Forecast

Almanac

Astronomy

Jul. 26, 2016 Rise Set
Actual Time
Civil Twilight
Nautical Twilight
Astronomical Twilight
Moon
Length of Visible Light
Length of Day
Tomorrow will be .
, % of the Moon is Illuminated

Today's Extremes

State Highs State Lows

Community

WunderPhotos

Upload Photos

1,927,678 photos uploaded!

WunderBlog® & News

Nearby

Air Quality

  Air Quality AQ Index Pollutant
Not available.

Snow Depth

Station Depth Elevation

Earthquake Activity

City Distance Mag. Time & Date
Minimum magnitude displayed is 2.5.

Coastal Water Temperatures

Place Temperature

Stations

Nearby Weather Stations

Station Location Temp. Windchill Dew Point Humidity Wind Precip. Elev Updated Type
                   

Watches & Warnings

Heat Advisory
Issued: 3:55 PM EDT Jul. 26, 2016 – National Weather Service

... Heat advisory remains in effect until 8 PM EDT this evening...
... Heat advisory in effect from noon to 8 PM EDT Wednesday...

The National Weather Service in Raleigh has issued a heat
advisory... which is in effect from noon to 8 PM EDT Wednesday.

* Temperatures... highs will be in the mid to upper 90s.

* Heat indices... 105 to 109 degrees.

* Impacts... this heat and humidity will lead to an increased
risk of heat related illnesses... especially among vulnerable
individuals such as the sick... the elderly... those exerting
themselves outdoors... and those without air conditioning.

Precautionary/preparedness actions...

A heat advisory means that hot temperatures and high humidity
will create a situation in which heat illnesses are possible.
Drink plenty of fluids... stay in an air-conditioned room... stay
out of the sun... and check up on relatives and neighbors.